ΕΜΥ, Εθνική Μετεωρολογική Υπηρεσία - Δελτία Καιρού, Προγνώσεις

ΑΕΡΟΝΑΥΤΙΛΙΑ

GREEK AIRPORTS CODES

LGIR 132020Z 30010KT CAVOK 27/20 Q1012 NOSIG=

EUROPEAN AIRPORTS CODES